createdAt,value
2019-01-05T00:01:42.494Z,39.33
2019-01-05T00:04:18.441Z,40.40
2019-01-05T00:06:57.079Z,38.43
2019-01-05T00:09:35.756Z,44.10
2019-01-05T00:12:22.016Z,39.47
2019-01-05T00:14:52.169Z,40.73
2019-01-05T00:17:28.110Z,41.00
2019-01-05T00:20:01.264Z,39.80
2019-01-05T00:22:47.744Z,39.10
2019-01-05T00:25:20.839Z,42.63
2019-01-05T00:28:07.238Z,43.20
2019-01-05T00:30:43.840Z,40.87
2019-01-05T00:33:24.309Z,42.30
2019-01-05T00:36:05.294Z,41.80
2019-01-05T00:38:50.680Z,41.67
2019-01-05T00:41:25.043Z,42.33
2019-01-05T00:43:58.182Z,38.37
2019-01-05T00:46:30.447Z,41.70
2019-01-05T00:49:09.428Z,37.20
2019-01-05T00:51:41.312Z,42.70
2019-01-05T00:54:19.869Z,40.77
2019-01-05T00:56:56.575Z,41.20
2019-01-05T00:59:30.332Z,41.27
2019-01-05T01:02:18.413Z,39.90
2019-01-05T01:04:48.507Z,37.00
2019-01-05T01:07:36.503Z,37.80
2019-01-05T01:10:25.568Z,40.50
2019-01-05T01:13:04.611Z,35.37
2019-01-05T01:15:49.559Z,38.23
2019-01-05T01:18:35.524Z,36.53
2019-01-05T01:21:14.876Z,35.90
2019-01-05T01:23:45.704Z,35.90
2019-01-05T01:26:16.019Z,35.60
2019-01-05T01:28:48.682Z,39.27
2019-01-05T01:31:18.882Z,37.60
2019-01-05T01:33:49.425Z,35.40
2019-01-05T01:36:25.724Z,36.43
2019-01-05T01:39:13.455Z,38.13
2019-01-05T01:41:58.827Z,37.37
2019-01-05T01:44:28.995Z,37.43
2019-01-05T01:47:18.227Z,37.43
2019-01-05T01:49:48.385Z,36.93
2019-01-05T01:52:20.212Z,34.77
2019-01-05T01:54:50.480Z,35.93
2019-01-05T01:57:33.736Z,35.47
2019-01-05T02:00:06.511Z,36.53
2019-01-05T02:02:54.338Z,33.77
2019-01-05T02:05:28.423Z,37.60
2019-01-05T02:08:18.166Z,36.83
2019-01-05T02:10:53.414Z,36.87
2019-01-05T02:13:40.528Z,35.33
2019-01-05T02:16:29.984Z,35.20
2019-01-05T02:19:08.647Z,35.37
2019-01-05T02:21:50.270Z,33.07
2019-01-05T02:24:47.216Z,33.27
2019-01-05T02:27:42.362Z,31.97
2019-01-05T02:30:33.241Z,31.67
2019-01-05T02:33:42.016Z,29.87
2019-01-05T02:36:50.844Z,27.53
2019-01-05T02:39:43.417Z,33.93
2019-01-05T02:42:25.646Z,32.73
2019-01-05T02:45:17.597Z,27.77
2019-01-05T02:48:09.672Z,30.80
2019-01-05T02:51:01.864Z,28.90
2019-01-05T02:54:16.732Z,25.63
2019-01-05T02:57:01.525Z,25.43
2019-01-05T02:59:46.167Z,26.63
2019-01-05T03:02:33.994Z,23.53
2019-01-05T03:05:38.021Z,23.50
2019-01-05T03:08:33.179Z,22.00
2019-01-05T03:11:22.540Z,22.53
2019-01-05T03:13:58.656Z,19.83
2019-01-05T03:16:43.248Z,19.17
2019-01-05T03:19:50.935Z,20.77
2019-01-05T03:22:47.725Z,21.43
2019-01-05T03:25:38.395Z,19.13
2019-01-05T03:28:42.799Z,17.50
2019-01-05T03:31:42.865Z,21.60
2019-01-05T03:34:18.727Z,19.30
2019-01-05T03:37:21.471Z,19.27
2019-01-05T03:40:28.903Z,19.93
2019-01-05T03:43:16.846Z,21.23
2019-01-05T03:46:21.355Z,21.20
2019-01-05T03:49:22.789Z,20.43
2019-01-05T03:52:07.614Z,21.93
2019-01-05T03:55:10.411Z,22.43
2019-01-05T03:57:59.549Z,19.53
2019-01-05T04:00:41.143Z,19.17
2019-01-05T04:03:51.761Z,20.47
2019-01-05T04:07:09.652Z,17.97
2019-01-05T04:09:51.643Z,19.30
2019-01-05T04:12:58.988Z,21.10
2019-01-05T04:15:43.606Z,18.47
2019-01-05T04:18:48.140Z,17.27
2019-01-05T04:21:32.746Z,18.10
2019-01-05T04:24:41.601Z,17.27
2019-01-05T04:27:32.406Z,18.83
2019-01-05T04:30:24.255Z,18.27
2019-01-05T04:33:09.308Z,20.30
2019-01-05T04:35:51.073Z,21.60
2019-01-05T04:38:55.328Z,19.17
2019-01-05T04:41:47.851Z,21.93
2019-01-05T04:44:46.298Z,17.20
2019-01-05T04:47:34.542Z,19.43
2019-01-05T04:50:32.650Z,17.90
2019-01-05T04:53:28.199Z,18.73
2019-01-05T04:56:16.028Z,17.63
2019-01-05T04:59:36.536Z,20.33
2019-01-05T05:02:46.460Z,20.00
2019-01-05T05:05:40.345Z,19.73
2019-01-05T05:08:29.738Z,17.80
2019-01-05T05:11:19.061Z,19.37
2019-01-05T05:14:11.271Z,18.03
2019-01-05T05:17:30.933Z,19.47
2019-01-05T05:20:21.871Z,21.57
2019-01-05T05:23:18.612Z,21.87
2019-01-05T05:26:31.667Z,19.93
2019-01-05T05:29:13.159Z,22.03
2019-01-05T05:32:11.403Z,21.90
2019-01-05T05:35:05.460Z,23.87
2019-01-05T05:38:12.740Z,19.40
2019-01-05T05:41:02.909Z,19.23
2019-01-05T05:44:22.622Z,20.13
2019-01-05T05:47:16.644Z,17.90
2019-01-05T05:50:11.943Z,16.53
2019-01-05T05:53:05.499Z,19.47
2019-01-05T05:56:11.267Z,18.57
2019-01-05T05:58:47.382Z,17.30
2019-01-05T06:01:45.761Z,16.90
2019-01-05T06:04:50.374Z,18.03
2019-01-05T06:08:06.812Z,17.03
2019-01-05T06:10:56.442Z,16.13
2019-01-05T06:13:53.163Z,18.87
2019-01-05T06:16:57.679Z,15.77
2019-01-05T06:20:14.088Z,16.83
2019-01-05T06:22:58.493Z,16.10
2019-01-05T06:25:43.214Z,19.47
2019-01-05T06:28:35.656Z,15.90
2019-01-05T06:31:23.635Z,18.47
2019-01-05T06:34:23.343Z,14.50
2019-01-05T06:37:39.237Z,15.97
2019-01-05T06:40:43.508Z,16.00
2019-01-05T06:43:41.938Z,15.73
2019-01-05T06:46:50.822Z,14.97
2019-01-05T06:49:56.654Z,15.30
2019-01-05T06:52:47.194Z,16.13
2019-01-05T06:56:09.395Z,13.23
2019-01-05T06:59:00.291Z,12.67
2019-01-05T07:02:01.484Z,13.80
2019-01-05T07:04:46.504Z,13.47
2019-01-05T07:08:01.618Z,13.77
2019-01-05T07:11:00.122Z,13.43
2019-01-05T07:13:44.311Z,13.43
2019-01-05T07:16:39.539Z,12.73
2019-01-05T07:19:27.148Z,14.20
2019-01-05T07:22:11.982Z,15.87
2019-01-05T07:25:07.462Z,12.00
2019-01-05T07:28:01.343Z,12.67
2019-01-05T07:30:54.998Z,11.17
2019-01-05T07:34:14.458Z,9.77
2019-01-05T07:37:08.358Z,9.60
2019-01-05T07:39:53.251Z,9.03
2019-01-05T07:43:00.800Z,9.97
2019-01-05T07:45:39.802Z,7.37
2019-01-05T07:48:32.051Z,7.27
2019-01-05T07:51:51.679Z,7.00
2019-01-05T07:55:12.740Z,7.10
2019-01-05T07:57:57.779Z,6.03
2019-01-05T08:00:45.608Z,6.43
2019-01-05T08:03:45.592Z,5.80
2019-01-05T08:06:36.396Z,5.53
2019-01-05T08:09:44.928Z,4.93
2019-01-05T08:12:47.935Z,5.93
2019-01-05T08:15:46.384Z,5.30
2019-01-05T08:18:41.810Z,4.97
2019-01-05T08:21:34.116Z,4.60
2019-01-05T08:24:30.840Z,5.50
2019-01-05T08:27:30.334Z,4.97
2019-01-05T08:30:28.742Z,5.33
2019-01-05T08:33:35.913Z,6.00
2019-01-05T08:36:27.019Z,5.73
2019-01-05T08:39:34.266Z,6.33
2019-01-05T08:42:21.987Z,6.57
2019-01-05T08:45:36.858Z,5.97
2019-01-05T08:48:31.927Z,6.20
2019-01-05T08:51:10.791Z,6.70
2019-01-05T08:54:22.487Z,7.50
2019-01-05T08:57:25.919Z,8.50
2019-01-05T09:00:30.566Z,9.00
2019-01-05T09:03:24.331Z,6.80
2019-01-05T09:06:19.472Z,6.53
2019-01-05T09:09:11.668Z,8.10
2019-01-05T09:12:03.989Z,6.93
2019-01-05T09:15:23.393Z,6.50
2019-01-05T09:18:07.926Z,6.70
2019-01-05T09:20:55.679Z,6.30
2019-01-05T09:23:54.023Z,6.63
2019-01-05T09:26:49.359Z,6.60
2019-01-05T09:30:08.574Z,5.90
2019-01-05T09:32:57.846Z,6.43
2019-01-05T09:36:09.336Z,5.47
2019-01-05T09:39:29.081Z,6.00
2019-01-05T09:42:34.975Z,5.63
2019-01-05T09:45:31.839Z,6.80
2019-01-05T09:48:37.360Z,6.00
2019-01-05T09:51:58.318Z,6.03
2019-01-05T09:55:04.384Z,7.63
2019-01-05T09:58:16.190Z,6.93
2019-01-05T10:01:23.833Z,5.33
2019-01-05T10:04:35.842Z,5.27
2019-01-05T10:07:33.847Z,5.23
2019-01-05T10:10:29.460Z,5.17
2019-01-05T10:13:22.156Z,5.90
2019-01-05T10:16:16.393Z,4.70
2019-01-05T10:18:58.287Z,4.93
2019-01-05T10:22:21.817Z,5.20
2019-01-05T10:25:23.462Z,4.97
2019-01-05T10:28:15.378Z,4.60
2019-01-05T10:30:51.604Z,5.50
2019-01-05T10:33:55.548Z,5.30
2019-01-05T10:37:13.195Z,4.57
2019-01-05T10:40:08.575Z,5.97
2019-01-05T10:43:04.798Z,3.97
2019-01-05T10:46:06.027Z,4.50
2019-01-05T10:49:08.803Z,4.70
2019-01-05T10:51:58.311Z,3.97
2019-01-05T10:54:49.047Z,4.80
2019-01-05T10:57:30.914Z,4.70
2019-01-05T11:00:41.430Z,5.07
2019-01-05T11:03:25.826Z,4.53
2019-01-05T11:06:19.583Z,4.67
2019-01-05T11:09:34.456Z,4.70
2019-01-05T11:12:34.107Z,4.60
2019-01-05T11:15:24.927Z,4.70
2019-01-05T11:18:50.441Z,4.47
2019-01-05T11:21:45.371Z,4.70
2019-01-05T11:24:37.751Z,5.67
2019-01-05T11:27:45.044Z,5.83
2019-01-05T11:31:01.329Z,5.17
2019-01-05T11:33:37.499Z,5.03
2019-01-05T11:36:33.020Z,5.27
2019-01-05T11:39:17.968Z,5.00
2019-01-05T11:42:08.928Z,5.07
2019-01-05T11:45:18.084Z,5.43
2019-01-05T11:48:25.399Z,5.20
2019-01-05T11:51:16.951Z,5.30
2019-01-05T11:54:33.142Z,5.53
2019-01-05T11:57:08.888Z,5.80
2019-01-05T11:59:59.400Z,5.07
2019-01-05T12:02:33.627Z,5.50
2019-01-05T12:05:28.988Z,4.40
2019-01-05T12:08:31.955Z,5.53
2019-01-05T12:11:28.640Z,4.77
2019-01-05T12:14:43.372Z,5.60
2019-01-05T12:17:55.079Z,5.30
2019-01-05T12:21:05.359Z,4.70
2019-01-05T12:24:01.940Z,5.30
2019-01-05T12:26:54.320Z,5.20
2019-01-05T12:29:41.786Z,5.00
2019-01-05T12:32:56.735Z,4.73
2019-01-05T12:35:54.977Z,5.50
2019-01-05T12:38:50.199Z,4.53
2019-01-05T12:41:54.335Z,5.70
2019-01-05T12:44:42.014Z,6.63
2019-01-05T12:47:40.227Z,6.20
2019-01-05T12:51:03.015Z,5.37
2019-01-05T12:53:55.428Z,4.63
2019-01-05T12:57:01.365Z,4.40
2019-01-05T13:00:02.814Z,4.87
2019-01-05T13:03:18.883Z,5.93
2019-01-05T13:06:30.527Z,5.07
2019-01-05T13:09:38.301Z,5.93
2019-01-05T13:12:50.017Z,5.93
2019-01-05T13:15:38.315Z,6.13
2019-01-05T13:18:48.668Z,5.43
2019-01-05T13:21:44.032Z,6.00
2019-01-05T13:24:28.740Z,5.30
2019-01-05T13:27:10.479Z,4.93
2019-01-05T13:30:16.262Z,6.27
2019-01-05T13:33:15.980Z,5.20
2019-01-05T13:36:28.846Z,7.23
2019-01-05T13:39:16.738Z,5.43
2019-01-05T13:42:16.563Z,5.30
2019-01-05T13:45:36.169Z,4.67
2019-01-05T13:48:43.328Z,6.33
2019-01-05T13:52:05.365Z,6.00
2019-01-05T13:54:37.375Z,5.67
2019-01-05T13:57:07.723Z,4.97
2019-01-05T13:59:37.791Z,5.10
2019-01-05T14:02:23.671Z,4.77
2019-01-05T14:05:09.796Z,4.73
2019-01-05T14:07:56.040Z,4.77
2019-01-05T14:10:26.100Z,5.10
2019-01-05T14:13:07.653Z,4.60
2019-01-05T14:15:53.442Z,4.93
2019-01-05T14:18:39.601Z,4.57
2019-01-05T14:21:24.841Z,4.40
2019-01-05T14:24:06.863Z,5.07
2019-01-05T14:26:45.991Z,5.13
2019-01-05T14:29:31.162Z,5.77
2019-01-05T14:32:12.991Z,4.40
2019-01-05T14:34:46.199Z,4.40
2019-01-05T14:37:16.254Z,4.77
2019-01-05T14:39:54.768Z,4.87
2019-01-05T14:42:39.915Z,3.87
2019-01-05T14:45:16.531Z,4.10
2019-01-05T14:48:01.579Z,4.93
2019-01-05T14:50:37.333Z,5.20
2019-01-05T14:53:10.367Z,6.30
2019-01-05T14:55:43.207Z,4.97
2019-01-05T14:58:30.803Z,4.47
2019-01-05T15:01:03.491Z,3.97
2019-01-05T15:03:39.567Z,5.60
2019-01-05T15:06:25.615Z,5.50
2019-01-05T15:08:55.686Z,5.07
2019-01-05T15:11:42.051Z,4.97
2019-01-05T15:14:12.122Z,7.17
2019-01-05T15:16:45.192Z,7.73
2019-01-05T15:19:31.655Z,7.17
2019-01-05T15:22:16.910Z,7.03
2019-01-05T15:24:49.687Z,6.77
2019-01-05T15:27:25.700Z,6.07
2019-01-05T15:29:55.763Z,6.00
2019-01-05T15:32:34.931Z,5.10
2019-01-05T15:35:21.281Z,6.13
2019-01-05T15:37:56.920Z,5.53
2019-01-05T15:40:35.767Z,5.50
2019-01-05T15:43:11.346Z,5.50
2019-01-05T15:45:59.512Z,6.40
2019-01-05T15:48:38.615Z,6.07
2019-01-05T15:51:08.671Z,6.43
2019-01-05T15:53:42.151Z,6.20
2019-01-05T15:56:15.174Z,6.73
2019-01-05T15:58:45.243Z,7.03
2019-01-05T16:01:20.798Z,6.40
2019-01-05T16:04:06.866Z,7.57
2019-01-05T16:06:42.991Z,8.03
2019-01-05T16:09:28.331Z,5.87
2019-01-05T16:12:07.347Z,6.17
2019-01-05T16:14:55.294Z,6.97
2019-01-05T16:17:41.206Z,6.97
2019-01-05T16:20:11.365Z,8.27
2019-01-05T16:22:41.426Z,8.03
2019-01-05T16:25:27.839Z,8.33
2019-01-05T16:27:57.915Z,9.40
2019-01-05T16:30:33.869Z,9.50
2019-01-05T16:33:06.376Z,9.07
2019-01-05T16:35:39.373Z,9.80
2019-01-05T16:38:09.528Z,9.27
2019-01-05T16:40:55.870Z,9.10
2019-01-05T16:43:41.028Z,9.80
2019-01-05T16:46:23.336Z,9.67
2019-01-05T16:48:55.867Z,9.97
2019-01-05T16:51:41.970Z,9.73
2019-01-05T16:54:28.013Z,9.50
2019-01-05T16:57:14.340Z,10.30
2019-01-05T16:59:47.092Z,10.50
2019-01-05T17:02:29.275Z,10.50
2019-01-05T17:05:05.174Z,11.43
2019-01-05T17:07:51.421Z,11.87
2019-01-05T17:10:27.541Z,11.77
2019-01-05T17:13:03.349Z,12.37
2019-01-05T17:15:33.422Z,12.93
2019-01-05T17:18:12.301Z,16.57
2019-01-05T17:20:58.240Z,12.93
2019-01-05T17:23:28.361Z,12.87
2019-01-05T17:26:04.162Z,12.27
2019-01-05T17:28:51.896Z,17.37
2019-01-05T17:31:27.912Z,18.37
2019-01-05T17:34:01.015Z,16.60
2019-01-05T17:36:37.108Z,15.80
2019-01-05T17:39:08.816Z,16.50
2019-01-05T17:41:54.916Z,12.73
2019-01-05T17:44:27.929Z,13.30
2019-01-05T17:47:00.469Z,13.47
2019-01-05T17:49:46.600Z,12.23
2019-01-05T17:52:34.714Z,11.23
2019-01-05T17:55:20.589Z,12.77
2019-01-05T17:58:02.474Z,13.40
2019-01-05T18:00:47.189Z,11.80
2019-01-05T18:03:35.221Z,14.43
2019-01-05T18:06:08.245Z,14.83
2019-01-05T18:08:54.283Z,14.80
2019-01-05T18:11:24.403Z,13.20
2019-01-05T18:14:00.314Z,12.43
2019-01-05T18:16:30.452Z,11.77
2019-01-05T18:19:15.455Z,12.33
2019-01-05T18:22:01.641Z,10.30
2019-01-05T18:24:49.581Z,11.10
2019-01-05T18:27:35.881Z,10.47
2019-01-05T18:30:24.166Z,10.00
2019-01-05T18:32:57.271Z,9.43
2019-01-05T18:35:45.561Z,9.93
2019-01-05T18:38:24.617Z,10.03
2019-01-05T18:41:06.621Z,10.03
2019-01-05T18:43:42.621Z,9.63
2019-01-05T18:46:28.838Z,10.50
2019-01-05T18:48:59.024Z,10.80
2019-01-05T18:51:29.159Z,9.40
2019-01-05T18:54:14.151Z,10.30
2019-01-05T18:57:00.138Z,10.73
2019-01-05T18:59:35.779Z,10.87
2019-01-05T19:02:21.770Z,10.47
2019-01-05T19:04:57.547Z,9.53
2019-01-05T19:07:43.728Z,9.03
2019-01-05T19:10:30.049Z,9.00
2019-01-05T19:13:05.937Z,9.37
2019-01-05T19:15:50.920Z,8.73
2019-01-05T19:18:21.124Z,9.20
2019-01-05T19:21:07.277Z,10.10
2019-01-05T19:23:53.654Z,9.30
2019-01-05T19:26:39.871Z,9.17
2019-01-05T19:29:22.111Z,9.60
2019-01-05T19:31:58.305Z,10.43
2019-01-05T19:34:44.683Z,10.37
2019-01-05T19:37:26.579Z,13.27
2019-01-05T19:39:59.206Z,12.57
2019-01-05T19:42:35.210Z,11.40
2019-01-05T19:45:11.569Z,12.37
2019-01-05T19:47:41.651Z,13.67
2019-01-05T19:50:17.536Z,12.13
2019-01-05T19:53:02.447Z,12.33
2019-01-05T19:55:48.434Z,12.87
2019-01-05T19:58:18.511Z,12.80
2019-01-05T20:01:06.167Z,12.47
2019-01-05T20:03:41.941Z,14.73
2019-01-05T20:06:28.458Z,13.73
2019-01-05T20:09:10.618Z,15.43
2019-01-05T20:11:40.708Z,14.37
2019-01-05T20:14:10.811Z,13.40
2019-01-05T20:16:56.963Z,15.45
2019-01-05T20:19:42.788Z,12.57
2019-01-05T20:22:15.357Z,14.00
2019-01-05T20:24:54.424Z,15.03
2019-01-05T20:27:40.589Z,14.77
2019-01-05T20:30:17.219Z,15.20
2019-01-05T20:32:47.292Z,14.43
2019-01-05T20:35:33.446Z,14.30
2019-01-05T20:38:18.602Z,14.20
2019-01-05T20:41:00.810Z,15.27
2019-01-05T20:43:42.643Z,16.83
2019-01-05T20:46:24.522Z,15.93
2019-01-05T20:48:54.592Z,15.47
2019-01-05T20:51:36.564Z,17.00
2019-01-05T20:54:12.743Z,18.80
2019-01-05T20:56:58.613Z,17.33
2019-01-05T20:59:31.356Z,17.23
2019-01-05T21:02:10.430Z,18.07
2019-01-05T21:04:43.188Z,21.47
2019-01-05T21:07:13.288Z,18.87
2019-01-05T21:09:52.158Z,14.87
2019-01-05T21:12:38.647Z,15.90
2019-01-05T21:15:24.985Z,15.07
2019-01-05T21:18:10.832Z,15.37
2019-01-05T21:20:49.870Z,15.90
2019-01-05T21:23:20.108Z,14.20
2019-01-05T21:25:53.178Z,15.03
2019-01-05T21:28:26.271Z,16.37
2019-01-05T21:30:59.029Z,15.70
2019-01-05T21:33:45.249Z,14.57
2019-01-05T21:36:18.296Z,15.00
2019-01-05T21:39:04.623Z,14.77
2019-01-05T21:41:43.451Z,17.17
2019-01-05T21:44:31.639Z,15.60
2019-01-05T21:47:16.315Z,17.43
2019-01-05T21:49:46.409Z,15.63
2019-01-05T21:52:25.084Z,14.77
2019-01-05T21:54:58.022Z,16.37
2019-01-05T21:57:46.163Z,16.47
2019-01-05T22:00:32.695Z,15.83
2019-01-05T22:03:08.504Z,15.43
2019-01-05T22:05:54.903Z,15.13
2019-01-05T22:08:33.431Z,14.37
2019-01-05T22:11:19.593Z,12.93
2019-01-05T22:13:49.730Z,13.83
2019-01-05T22:16:25.321Z,14.87
2019-01-05T22:18:55.387Z,14.20
2019-01-05T22:21:31.480Z,13.07
2019-01-05T22:24:17.948Z,10.73
2019-01-05T22:26:48.042Z,11.87
2019-01-05T22:29:23.655Z,12.90
2019-01-05T22:31:53.776Z,11.80
2019-01-05T22:34:32.428Z,10.40
2019-01-05T22:37:14.519Z,11.30
2019-01-05T22:40:00.300Z,11.93
2019-01-05T22:42:35.983Z,11.13
2019-01-05T22:45:13.226Z,10.50
2019-01-05T22:47:46.037Z,9.23
2019-01-05T22:50:32.489Z,9.80
2019-01-05T22:53:08.311Z,9.97
2019-01-05T22:55:41.028Z,9.20
2019-01-05T22:58:29.097Z,9.43
2019-01-05T23:00:59.287Z,8.50
2019-01-05T23:03:45.652Z,9.27
2019-01-05T23:06:30.656Z,9.13
2019-01-05T23:09:03.692Z,8.37
2019-01-05T23:11:36.692Z,7.70
2019-01-05T23:14:16.008Z,9.53
2019-01-05T23:17:02.203Z,10.60
2019-01-05T23:19:48.525Z,9.13
2019-01-05T23:22:24.272Z,8.23
2019-01-05T23:25:03.253Z,8.00
2019-01-05T23:27:49.465Z,8.70
2019-01-05T23:30:39.946Z,8.60
2019-01-05T23:33:26.311Z,7.73
2019-01-05T23:36:14.627Z,7.03
2019-01-05T23:38:50.362Z,7.57
2019-01-05T23:41:25.032Z,7.70
2019-01-05T23:44:10.438Z,7.73
2019-01-05T23:46:43.161Z,8.07
2019-01-05T23:49:31.124Z,7.97
2019-01-05T23:52:17.342Z,7.23
2019-01-05T23:55:05.608Z,7.20
2019-01-05T23:57:38.479Z,7.20
